This is the latest recevied weather packets stored in our database for station/object K0PFX-8. If no packets are shown the sender has not sent any weather packets the latest 10 day(s).
| Time | Temp. | Humidity | Pressure | Rain* | Wind** | Luminosity | Snow |
|---|---|---|---|---|---|---|---|
| 1777949377 | 23.33° C | 43% | 1004.1 hPa | 0 mm | 4.02 m/s, 238° | - | - |
| 1777948476 | 23.33° C | 43% | 1003.9 hPa | 0 mm | 3.58 m/s, 200° | - | - |
| 1777947578 | 23.33° C | 43% | 1003.6 hPa | 0 mm | 1.34 m/s, 250° | - | - |
| 1777946676 | 23.33° C | 44% | 1003.4 hPa | 0 mm | 2.24 m/s, 253° | - | - |
| 1777945778 | 23.89° C | 42% | 1003.2 hPa | 0 mm | 1.34 m/s, 190° | - | - |
| 1777944876 | 23.89° C | 42% | 1003 hPa | 0 mm | 0 m/s | - | - |
| 1777943978 | 23.89° C | 41% | 1002.7 hPa | 0 mm | 1.79 m/s, 255° | - | - |
| 1777943077 | 24.44° C | 40% | 1002.5 hPa | 0 mm | 2.24 m/s, 250° | - | - |
| 1777942179 | 24.44° C | 39% | 1002.4 hPa | 0 mm | 1.79 m/s, 245° | - | - |
| 1777941278 | 25° C | 38% | 1002.2 hPa | 0 mm | 4.47 m/s, 214° | - | - |
| 1777940379 | 25° C | 37% | 1002.2 hPa | 0 mm | 3.13 m/s, 221° | - | - |
| 1777939478 | 25.56° C | 37% | 1002.3 hPa | 0 mm | 3.13 m/s, 232° | - | - |
| 1777938580 | 25.56° C | 36% | 1002.3 hPa | 0 mm | 3.13 m/s, 235° | - | - |
| 1777937679 | 25.56° C | 38% | 1002.4 hPa | 0 mm | 4.92 m/s, 211° | - | - |
| 1777936780 | 25.56° C | 37% | 1002.8 hPa | 0 mm | 4.92 m/s, 228° | - | - |
| 1777935880 | 25.56° C | 40% | 1003.1 hPa | 0 mm | 4.47 m/s, 246° | - | - |
| 1777934982 | 25° C | 45% | 1003.2 hPa | 0 mm | 2.24 m/s, 204° | - | - |
| 1777934081 | 25° C | 44% | 1003.4 hPa | 0 mm | 1.79 m/s, 204° | - | - |
| 1777933181 | 25.56° C | 45% | 1003.6 hPa | 0 mm | 0 m/s | - | - |
| 1777932280 | 25.56° C | 43% | 1003.7 hPa | 0 mm | 2.68 m/s, 180° | - | - |
| 1777931387 | 26.11° C | 43% | 1003.7 hPa | 0 mm | 3.58 m/s, 204° | - | - |
| 1777931382 | 26.11° C | 43% | 1003.7 hPa | 0 mm | 3.58 m/s, 204° | - | - |
| 1777930481 | 25.56° C | 48% | 1003.8 hPa | 0 mm | 0.89 m/s, 204° | - | - |
| 1777929582 | 25° C | 48% | 1003.9 hPa | 0 mm | 4.02 m/s, 235° | - | - |
| 1777928681 | 25° C | 51% | 1004 hPa | 0 mm | 3.13 m/s, 146° | - | - |
* Rain latest hour (hover to see other rain measurements)
** Current wind speed in m/s (hover to see current wind gust speed)